Weeksbury, KY (41667)

11:37 AM EDT on September 01, 2014 (GMT -0400)
Sookeys Creek | Change Station
CLOSE
Current Station
Personal Weather Station
Location: Kentucky, KY
Elevation: 850 ft
Nearby Weather Stations

Elev 850 ft 37.40 °N, 82.54 °W | Updated 1 minute ago

Mostly Cloudy
Mostly Cloudy
86.7 °F
Feels Like 95 °F
N
0.0
Wind Variable Wind from North
Gusts 4.5 mph

Today
High -- | Low -- °F
--% Chance of Precip.
Yesterday
High -- | Low -- °F
Precip. -- in
7:01 AM 7:59 PM
Waxing Crescent, 41% visible
Pressure 30.22 in
Visibility 10.0 miles
Clouds Scattered Clouds 12000 ft
Heat Index 95 °F
Dew Point 74 °F
Humidity 65%
Rainfall 0.00 in
Snow Depth Not available.
UV 6 out of 12
Pollen 9.60 out of 12
Air Quality Not available.
Flu Activity Not available.
METAR KLNP 011515Z AUTO 22007KT 10SM SCT120 25/18 A3022 RMK AO2

More Conditions Fewer Conditions

Pressure 30.22 in
Visibility 10.0 miles
Clouds Scattered Clouds 12000 ft
Heat Index 95 °F
Dew Point 74 °F
Humidity 65%
Rainfall 0.00 in
Snow Depth Not available.
UV 6 out of 12
Pollen 9.60 out of 12
Air Quality Not available.
Flu Activity Not available.
METAR KLNP 011515Z AUTO 22007KT 10SM SCT120 25/18 A3022 RMK AO2

More Conditions Fewer Conditions

10-Day Weather Forecast

Almanac

Astronomy

Sep. 01, 2014 Rise Set
Actual Time 7:01 AM EDT 7:59 PM EDT
Civil Twilight 6:34 AM EDT 8:26 PM EDT
Nautical Twilight 6:02 AM EDT 8:57 PM EDT
Astronomical Twilight 5:30 AM EDT 9:30 PM EDT
Moon 1:37 PM EDT No Moon Set
Length of Visible Light 13h 51m
Length of Day
12h 58m
Tomorrow will be 2m 18s shorter.
Waxing Crescent, 41% of the Moon is Illuminated
Today
Waxing Crescent
Sep 2
First Quarter
Sep 8
Full
Sep 15
Last Quarter
Sep 24
New

Today's Extremes

State Highs State Lows

Community

WunderPhotos

Upload Photos

1,749,276 photos uploaded!

Nearby

Snow Depth

Station Depth Elevation
No new snow has been reported.

Earthquake Activity

City Distance Mag. Time & Date
No recent earthquake activity has been reported nearby.
Minimum magnitude displayed is 2.5.

Coastal Water Temperatures

Place Temperature
No Stations Reporting

Nearby Weather Stations